Tropical Cyclones
[Index]
Main Index Home Page Stock Weather Photos Extreme Storms Discussion Storm News and Storm Chasing Reports Tropical Cyclones / Hurricanes / Typhoons Weather Data and Links Wild Fires / Bushfires Weather Observation Techniques Weather Picture Catalogue Tornado Pictures and Reports Stock Video Footage and DVDs for sale
Season 2010-2011 Tropical Cyclone ZELIA Track Map
Season 2010-2011 Summaries (Operational Data): [AU] [SIO] [SPAC] [SH]
<<- Previous TC | 2010-2011 Season | Next TC ->>

click for intensity scale information  Lat/long Grid: Show Hide

 Date Labels: Show Hide

Operational Tropical Cyclone Data : JTWC Advisories | BoM Warnings

Name: ZELIA
Number: 1107

13 Jan 2011 00:00 UTC to 19 Jan 2011 12:00 UTC

    date/time    lat    long     hPa   cat  kts
2011-01-13 00   14.7   149.9    1000         25          
2011-01-13 06   14.2   149.8     997         25          
2011-01-13 12   13.5   149.6     996         30          
2011-01-13 18   12.4   149.9     996         30          
2011-01-14 00   12.5   150.7     995         30          
2011-01-14 03   12.5   151.3     992    1    35          
2011-01-14 06   12.8   151.5     992    1    35          
2011-01-14 12   13.8   152.2     989    1    40          
2011-01-14 18   14.0   152.2     989    1    40          
2011-01-15 00   14.6   152.3     987    1    45          
2011-01-15 06   15.1   152.5     982    2    50          
2011-01-15 12   15.5   153.1     975    3    65          
2011-01-15 18   16.1   154.9     970    3    80          
2011-01-16 00   17.5   156.8     965    3    80          
2011-01-16 06   19.0   158.7     957    3    85          
2011-01-16 12   20.6   160.7     957    3    85          
2011-01-16 18   22.4   162.7     970    3    80          
2011-01-17 00   24.9   165.0     970    3    80          
2011-01-17 06   27.5   167.5     975    2    60          
2011-01-17 12   29.6   169.2     980    2    55          
2011-01-17 18   33.3   169.4     990    1    45          
2011-01-18 00   35.0   170.0     988    1    40          
2011-01-18 06   40.0   172.0     987    1    40          
2011-01-18 12   44.0   174.0     980    1    40          
2011-01-18 18   48.0   177.0     974    2    50          
2011-01-19 00   50.0   180.0     971    2    50          
2011-01-19 06   51.0   176.0W    969    2    50          
2011-01-19 12   51.0   172.0W    974    2    50          
Winds are 10-min average.

Tropical cyclone tracks developed by Michael Bath using operational warnings and advisories and Google Maps.


[Australian Severe Weather index] [Copyright Notice] [Email Contacts] [Search This Site] [Privacy Policy]
Document: tropical_cyclone_zelia.htm Updated: 2 May 2017